Terminal Aerodrome Forecast
Issued by NWS Sterling, VA

Home | Current Version | Previous Version | Text Only | Print | Product List | Glossary On
Versions: 1 2 3 4 5 6 7 8 9 10 11 12 13 14 15 16 17 18 19 20 21 22 23 24 25 26 27
070
FTUS41 KLWX 301736
TAFBWI
TAF
KBWI 301736Z 3018/3124 12006KT P6SM SCT040 OVC080
     FM310900 10007KT 5SM -RA BKN015 OVC025
     FM311200 10009KT 4SM RA BKN010 OVC025
     FM311500 10008KT 3SM RA BKN010 OVC025 WS020/16035KT
     FM311800 13010G17KT 2SM SHRA BKN008 OVC020 WS020/17035KT
     FM312100 15009KT 3SM SHRA BKN010 OVC020 WS020/16040KT=

USA.gov is the U.S. government's official web portal to all federal, state and local government web resources and services.